Terminal Aerodrome Forecast
Issued by NWS Green Bay, WI

Home | Current Version | Previous Version | Graphics & Text | Print | Product List | Glossary On
Versions: 1 2 3 4 5 6 7 8 9 10 11 12 13 14 15 16 17 18 19 20 21 22 23 24 25 26 27 28 29 30 31
579
FTUS43 KGRB 171137
TAFGRB
TAF
KGRB 171137Z 1712/1812 21008KT P6SM BKN150
     FM171300 22011G17KT P6SM OVC080 WS018/24040KT
     FM171800 23012G18KT 4SM -SN OVC030
      TEMPO 1718/1721 1 1/2SM -SN OVC018
     FM172100 25009KT P6SM BKN035
     FM180400 26006KT P6SM SKC=

USA.gov is the U.S. government's official web portal to all federal, state and local government web resources and services.